Time;durP1;ratioP1;P1;durP2;ratioP2;P2;SDS_P1;SDS_P2;PMS_P1;PMS_P2;Temp;Humidity;BMP_temperature;BMP_pressure;BME280_temperature;BME280_humidity;BME280_pressure;Samples;Min_cycle;Max_cycle;Signal;HPM_P1;HPM_P2
2021/08/25 00:02:04;;;;;;;7.53;3.42;;;;;;;8.69;76.67;102666.53;5046238;28;20099;-48
2021/08/25 00:04:29;;;;;;;9.85;3.88;;;;;;;8.66;76.29;102664.25;5045524;28;20401;-52
2021/08/25 00:06:55;;;;;;;10.30;3.92;;;;;;;8.59;76.39;102657.16;5045618;28;20097;-51
2021/08/25 00:09:20;;;;;;;9.15;3.53;;;;;;;8.52;76.43;102662.44;5044916;28;20601;-52
2021/08/25 00:11:46;;;;;;;8.35;4.28;;;;;;;8.51;76.58;102654.59;5044295;28;20029;-49
2021/08/25 00:14:12;;;;;;;10.27;4.38;;;;;;;8.45;76.51;102650.84;5044857;28;20067;-49
2021/08/25 00:16:37;;;;;;;7.57;4.05;;;;;;;8.41;76.63;102642.34;5043636;28;20678;-49
2021/08/25 00:19:03;;;;;;;12.50;4.47;;;;;;;8.40;76.96;102653.22;5044382;28;20475;-51
2021/08/25 00:21:28;;;;;;;7.80;4.13;;;;;;;8.33;77.18;102652.31;5045143;28;20612;-51
2021/08/25 00:23:53;;;;;;;11.40;4.30;;;;;;;8.32;76.72;102651.47;5046299;28;20037;-49
2021/08/25 00:26:19;;;;;;;7.03;3.55;;;;;;;8.27;76.81;102655.72;5063976;28;20086;-50
2021/08/25 00:28:44;;;;;;;6.82;3.30;;;;;;;8.21;76.74;102654.59;5045406;28;20094;-49
2021/08/25 00:31:13;;;;;;;7.82;3.67;;;;;;;8.17;77.03;102651.50;5044890;28;20048;-49
2021/08/25 00:33:39;;;;;;;6.47;3.47;;;;;;;8.11;76.92;102652.25;5046396;28;20078;-49
2021/08/25 00:36:04;;;;;;;6.90;3.67;;;;;;;8.04;77.51;102645.97;5045504;28;20469;-49
2021/08/25 00:38:30;;;;;;;9.27;3.95;;;;;;;8.03;77.52;102643.47;5047201;28;20040;-48
2021/08/25 00:40:55;;;;;;;8.80;3.90;;;;;;;7.99;77.77;102636.88;5046131;28;20060;-50
2021/08/25 00:43:21;;;;;;;9.32;4.22;;;;;;;7.98;78.01;102636.03;5043829;28;20417;-49
2021/08/25 00:45:46;;;;;;;9.57;4.95;;;;;;;7.92;78.58;102633.28;5048287;28;20401;-49
2021/08/25 00:48:17;;;;;;;10.23;4.57;;;;;;;7.89;78.34;102627.28;5049063;28;20033;-49
2021/08/25 00:50:46;;;;;;;6.82;3.60;;;;;;;7.84;78.63;102623.50;5049714;28;20024;-49
2021/08/25 00:53:12;;;;;;;13.45;5.07;;;;;;;7.79;79.18;102625.91;5047400;28;20028;-52
2021/08/25 00:55:38;;;;;;;9.57;4.65;;;;;;;7.72;79.47;102619.63;5050618;28;20022;-51
2021/08/25 00:58:05;;;;;;;9.98;4.45;;;;;;;7.72;79.30;102617.81;5044156;28;20181;-52
2021/08/25 01:00:31;;;;;;;8.88;4.50;;;;;;;7.68;79.14;102613.03;5048023;28;20162;-50
2021/08/25 01:03:13;;;;;;;8.57;4.07;;;;;;;7.55;79.38;102611.84;5048627;28;20024;-50
2021/08/25 01:05:41;;;;;;;6.82;3.80;;;;;;;7.53;79.31;102608.50;5049938;28;20047;-50
2021/08/25 01:08:09;;;;;;;6.57;3.35;;;;;;;7.53;79.04;102605.81;5049184;28;20032;-49
2021/08/25 01:10:34;;;;;;;4.85;2.90;;;;;;;7.52;78.85;102600.69;5048250;28;20028;-51
2021/08/25 01:13:01;;;;;;;5.80;3.25;;;;;;;7.46;78.93;102607.56;5048487;28;20055;-51
2021/08/25 01:15:34;;;;;;;5.55;3.28;;;;;;;7.43;78.96;102599.94;5049720;28;20029;-50
2021/08/25 01:18:05;;;;;;;7.45;3.42;;;;;;;7.38;78.85;102599.66;5048687;28;20131;-50
2021/08/25 01:20:31;;;;;;;7.03;3.58;;;;;;;7.34;78.95;102603.69;5049126;28;20078;-52
2021/08/25 01:22:57;;;;;;;10.73;4.00;;;;;;;7.30;79.18;102602.41;5048383;28;20060;-51
2021/08/25 01:25:28;;;;;;;6.05;3.47;;;;;;;7.26;79.06;102606.44;5048874;28;20120;-50
2021/08/25 01:27:57;;;;;;;7.15;3.70;;;;;;;7.25;79.37;102600.28;5049625;28;20036;-51
2021/08/25 01:30:25;;;;;;;11.27;4.70;;;;;;;7.20;79.19;102597.34;5045792;28;20025;-51
2021/08/25 01:32:51;;;;;;;8.60;4.00;;;;;;;7.19;79.78;102592.19;5047463;28;20043;-51
2021/08/25 01:35:16;;;;;;;10.20;4.10;;;;;;;7.17;79.50;102587.00;5045682;28;20033;-52
2021/08/25 01:37:42;;;;;;;10.88;4.55;;;;;;;7.15;79.60;102577.53;5047071;28;20043;-49
2021/08/25 01:40:08;;;;;;;8.02;4.70;;;;;;;7.14;80.07;102581.22;5047779;28;20162;-50
2021/08/25 01:42:34;;;;;;;8.00;4.35;;;;;;;7.11;79.82;102578.91;5047737;28;20066;-51
2021/08/25 01:44:59;;;;;;;8.35;3.85;;;;;;;7.08;79.81;102571.28;5042943;28;20127;-52
2021/08/25 01:47:25;;;;;;;7.68;4.38;;;;;;;7.07;80.27;102572.28;5048335;28;20077;-51
2021/08/25 01:49:54;;;;;;;9.25;4.03;;;;;;;7.00;80.46;102564.16;5033488;28;20178;-49
2021/08/25 01:52:21;;;;;;;13.18;3.67;;;;;;;6.96;80.17;102555.72;5045864;28;20089;-49
2021/08/25 01:54:51;;;;;;;6.32;3.53;;;;;;;6.94;80.61;102555.06;5046526;28;20119;-50
2021/08/25 01:57:17;;;;;;;8.07;4.03;;;;;;;6.96;80.25;102555.72;5045717;28;20028;-50
2021/08/25 01:59:42;;;;;;;7.60;4.05;;;;;;;6.88;80.44;102553.13;5062652;28;20540;-49
2021/08/25 02:02:08;;;;;;;8.93;4.35;;;;;;;6.86;80.84;102552.50;5045602;28;20028;-50
2021/08/25 02:04:34;;;;;;;8.82;3.80;;;;;;;6.88;80.92;102547.81;5045494;28;20153;-51
2021/08/25 02:07:01;;;;;;;9.18;4.05;;;;;;;6.91;80.97;102547.44;5046626;28;20028;-52
2021/08/25 02:09:26;;;;;;;6.90;4.18;;;;;;;6.86;81.32;102544.50;5047004;28;20054;-52
2021/08/25 02:11:52;;;;;;;8.75;4.97;;;;;;;6.82;81.83;102540.53;5045178;28;20351;-52
2021/08/25 02:14:18;;;;;;;9.68;4.30;;;;;;;6.85;81.29;102540.19;5047422;28;20288;-51
2021/08/25 02:16:44;;;;;;;7.95;3.65;;;;;;;6.81;81.46;102541.50;5048125;28;20036;-51
2021/08/25 02:19:09;;;;;;;10.73;4.03;;;;;;;6.81;81.16;102538.84;5046451;28;20525;-49
2021/08/25 02:21:35;;;;;;;10.65;4.70;;;;;;;6.78;81.34;102533.88;5046718;28;20032;-51
2021/08/25 02:24:01;;;;;;;7.35;3.85;;;;;;;6.79;81.36;102534.72;5047689;28;20028;-49
2021/08/25 02:26:26;;;;;;;7.80;4.50;;;;;;;6.78;81.40;102535.72;5047806;28;20033;-50
2021/08/25 02:28:53;;;;;;;7.57;4.13;;;;;;;6.74;81.58;102532.59;5047114;28;20102;-52
2021/08/25 02:31:20;;;;;;;7.93;3.47;;;;;;;6.66;81.22;102528.19;5049442;28;20376;-50
2021/08/25 02:33:46;;;;;;;7.63;3.80;;;;;;;6.65;80.95;102523.84;5047579;28;20062;-52
2021/08/25 02:36:13;;;;;;;6.68;3.65;;;;;;;6.60;81.11;102515.56;5047718;28;20037;-50
2021/08/25 02:38:40;;;;;;;8.13;3.50;;;;;;;6.56;80.54;102514.25;5047995;28;20114;-50
2021/08/25 02:41:08;;;;;;;5.10;3.30;;;;;;;6.51;80.81;102513.97;5046581;28;20033;-50
2021/08/25 02:43:34;;;;;;;4.32;3.00;;;;;;;6.42;80.71;102516.84;5046933;28;20863;-51
2021/08/25 02:46:00;;;;;;;5.32;3.33;;;;;;;6.41;80.91;102509.88;5045764;28;20056;-49
2021/08/25 02:48:26;;;;;;;6.57;2.83;;;;;;;6.37;81.24;102509.41;5046633;28;20123;-51
2021/08/25 02:50:52;;;;;;;7.75;3.60;;;;;;;6.38;80.80;102505.75;5047470;28;20103;-50
2021/08/25 02:53:17;;;;;;;8.23;3.80;;;;;;;6.32;81.49;102503.81;5045770;28;20062;-51
2021/08/25 02:55:46;;;;;;;7.03;3.28;;;;;;;6.34;81.35;102501.78;5046918;28;20024;-51
2021/08/25 02:58:13;;;;;;;6.95;3.58;;;;;;;6.31;81.50;102494.97;5046796;28;20029;-49
2021/08/25 03:00:39;;;;;;;6.05;3.45;;;;;;;6.30;81.07;102488.00;5047256;28;20033;-49
2021/08/25 03:03:05;;;;;;;8.57;3.13;;;;;;;6.25;81.27;102485.03;5046054;28;20044;-49
2021/08/25 03:05:30;;;;;;;8.95;3.92;;;;;;;6.28;81.42;102483.84;5047458;28;20041;-50
2021/08/25 03:07:56;;;;;;;5.22;3.20;;;;;;;6.30;82.05;102484.50;5047559;28;20039;-50
2021/08/25 03:10:22;;;;;;;5.47;2.88;;;;;;;6.29;81.86;102480.19;5046871;28;20024;-50
2021/08/25 03:12:47;;;;;;;9.77;3.83;;;;;;;6.23;82.01;102480.88;5049430;28;20226;-52
2021/08/25 03:15:13;;;;;;;6.38;3.20;;;;;;;6.19;82.46;102471.59;5046192;28;20025;-51
2021/08/25 03:17:39;;;;;;;5.32;3.45;;;;;;;6.14;82.45;102471.31;5047129;28;20032;-49
2021/08/25 03:20:07;;;;;;;7.70;3.83;;;;;;;6.10;82.32;102464.66;5045560;28;20566;-49
2021/08/25 03:22:32;;;;;;;8.07;4.43;;;;;;;6.04;82.40;102468.88;5046297;28;20416;-52
2021/08/25 03:24:58;;;;;;;8.98;3.58;;;;;;;6.05;82.46;102468.69;5046382;28;20036;-51
2021/08/25 03:27:24;;;;;;;7.40;4.03;;;;;;;6.00;82.68;102456.94;5047167;28;20037;-51
2021/08/25 03:29:49;;;;;;;10.75;4.60;;;;;;;5.98;82.55;102458.94;5046972;28;20474;-52
2021/08/25 03:32:14;;;;;;;8.32;4.50;;;;;;;5.98;82.80;102453.63;5046673;28;20037;-51
2021/08/25 03:34:40;;;;;;;7.75;4.22;;;;;;;5.92;82.68;102467.59;5045838;28;20822;-52
2021/08/25 03:37:06;;;;;;;8.10;4.00;;;;;;;5.88;82.67;102458.28;5045618;28;20587;-51
2021/08/25 03:39:32;;;;;;;7.07;3.85;;;;;;;5.84;82.89;102462.31;5046719;28;20032;-50
2021/08/25 03:41:57;;;;;;;7.20;3.72;;;;;;;5.85;82.58;102458.66;5027834;28;20052;-52
2021/08/25 03:44:23;;;;;;;6.60;3.10;;;;;;;5.83;82.74;102456.16;5046684;28;20541;-50
2021/08/25 03:46:48;;;;;;;5.45;3.30;;;;;;;5.86;82.49;102455.81;5048326;28;20093;-49
2021/08/25 03:49:14;;;;;;;8.25;4.50;;;;;;;5.85;82.74;102455.97;5046127;28;20029;-50
2021/08/25 03:51:39;;;;;;;7.30;4.05;;;;;;;5.85;83.40;102453.31;5048477;28;20743;-49
2021/08/25 03:54:05;;;;;;;8.82;4.22;;;;;;;5.85;83.23;102455.97;5046433;28;20040;-49
2021/08/25 03:56:30;;;;;;;11.30;4.38;;;;;;;5.81;83.36;102454.69;5047354;28;20063;-50
2021/08/25 03:58:56;;;;;;;10.32;5.03;;;;;;;5.79;83.75;102457.53;5045549;28;20036;-52
2021/08/25 04:01:22;;;;;;;10.40;4.63;;;;;;;5.75;83.64;102457.06;5043983;28;20094;-50
2021/08/25 04:03:47;;;;;;;11.68;4.63;;;;;;;5.74;83.79;102455.41;5047585;28;20035;-50
2021/08/25 04:06:13;;;;;;;8.73;4.28;;;;;;;5.78;83.77;102447.88;5046434;28;20037;-50
2021/08/25 04:08:38;;;;;;;11.63;4.32;;;;;;;5.84;84.02;102446.34;5048117;28;20032;-49
2021/08/25 04:11:04;;;;;;;9.25;3.92;;;;;;;5.85;83.80;102450.66;5044053;28;20033;-50
2021/08/25 04:13:29;;;;;;;7.88;3.70;;;;;;;5.83;83.59;102442.03;5045329;28;20040;-50
2021/08/25 04:15:55;;;;;;;8.50;4.22;;;;;;;5.85;83.52;102434.69;5046902;28;20175;-49
2021/08/25 04:18:20;;;;;;;7.40;3.35;;;;;;;5.86;83.82;102425.72;5044804;28;20028;-50
2021/08/25 04:20:46;;;;;;;9.38;4.25;;;;;;;5.89;83.30;102417.38;5048360;28;20058;-49
2021/08/25 04:23:11;;;;;;;6.13;3.55;;;;;;;5.90;83.44;102419.91;5048156;28;20029;-49
2021/08/25 04:25:37;;;;;;;5.93;3.10;;;;;;;5.96;83.22;102410.41;5050552;28;20020;-50
2021/08/25 04:28:03;;;;;;;5.50;2.70;;;;;;;6.05;83.13;102419.97;5049922;28;20473;-50
2021/08/25 04:30:28;;;;;;;6.03;3.00;;;;;;;6.13;82.92;102409.28;5050405;28;20032;-49
2021/08/25 04:32:53;;;;;;;7.65;3.70;;;;;;;6.21;82.46;102401.22;5048657;28;20036;-51
2021/08/25 04:35:19;;;;;;;10.13;4.25;;;;;;;6.27;82.31;102397.00;5049039;28;20029;-51
2021/08/25 04:37:44;;;;;;;7.47;3.97;;;;;;;6.34;81.95;102401.44;5048717;28;20857;-51
2021/08/25 04:40:10;;;;;;;5.72;3.45;;;;;;;6.40;81.65;102402.56;5049596;28;20047;-51
2021/08/25 04:42:36;;;;;;;8.10;4.03;;;;;;;6.46;81.69;102398.34;5047840;28;20200;-50
2021/08/25 04:45:02;;;;;;;10.63;4.95;;;;;;;6.51;81.51;102398.63;5050219;28;20029;-52
2021/08/25 04:47:27;;;;;;;9.27;4.03;;;;;;;6.60;81.32;102392.22;5048125;28;20035;-51
2021/08/25 04:49:53;;;;;;;8.90;4.13;;;;;;;6.64;81.99;102386.38;5049044;28;20370;-52
2021/08/25 04:52:18;;;;;;;7.78;4.28;;;;;;;6.80;81.30;102390.66;5050487;28;20024;-51
2021/08/25 04:54:44;;;;;;;8.50;4.95;;;;;;;6.94;80.93;102397.84;5050303;28;20474;-49
2021/08/25 04:57:09;;;;;;;9.63;5.55;;;;;;;7.08;80.70;102406.84;5048938;28;20068;-50
2021/08/25 04:59:35;;;;;;;9.32;6.10;;;;;;;7.23;80.95;102401.53;5050691;28;20028;-49
2021/08/25 05:02:00;;;;;;;10.43;6.10;;;;;;;7.38;80.71;102394.34;5050484;28;20063;-52
2021/08/25 05:04:26;;;;;;;10.20;5.70;;;;;;;7.54;80.53;102391.47;5049031;28;20024;-51
2021/08/25 05:06:51;;;;;;;12.90;7.28;;;;;;;7.72;80.08;102387.50;5049358;28;20062;-52
2021/08/25 05:09:17;;;;;;;14.10;7.47;;;;;;;7.88;80.14;102376.59;5032270;28;20462;-51
2021/08/25 05:11:42;;;;;;;13.70;7.43;;;;;;;8.04;79.99;102380.84;5048088;28;20390;-49
2021/08/25 05:14:08;;;;;;;13.75;7.30;;;;;;;8.18;80.53;102377.31;5047381;28;20063;-51
2021/08/25 05:16:33;;;;;;;14.63;6.80;;;;;;;8.33;80.18;102374.56;5048736;28;20032;-52
2021/08/25 05:18:59;;;;;;;9.13;5.35;;;;;;;8.51;79.76;102372.25;5048236;28;20221;-51
2021/08/25 05:21:26;;;;;;;7.80;5.20;;;;;;;8.65;79.80;102374.00;5048362;28;20531;-51
2021/08/25 05:23:52;;;;;;;8.55;5.13;;;;;;;8.77;79.84;102367.06;5046706;28;20028;-51
2021/08/25 05:26:17;;;;;;;8.77;4.82;;;;;;;8.92;79.56;102368.81;5050238;28;20036;-49
2021/08/25 05:28:42;;;;;;;9.80;4.97;;;;;;;9.07;80.25;102364.97;5050604;28;20587;-52
2021/08/25 05:31:08;;;;;;;9.00;5.05;;;;;;;9.30;79.03;102361.16;5046630;28;20395;-49
2021/08/25 05:33:33;;;;;;;10.45;4.65;;;;;;;9.53;78.97;102360.84;5048973;28;20038;-52
2021/08/25 05:35:59;;;;;;;6.85;3.80;;;;;;;9.72;78.69;102356.56;5048850;28;20024;-51
2021/08/25 05:38:26;;;;;;;5.97;4.05;;;;;;;9.89;78.30;102355.16;5050033;28;20037;-49
2021/08/25 05:40:52;;;;;;;8.05;4.70;;;;;;;9.99;78.21;102351.03;5049129;28;20036;-52
2021/08/25 05:43:17;;;;;;;9.75;5.15;;;;;;;10.09;78.11;102344.44;5051620;28;20036;-52
2021/08/25 05:45:44;;;;;;;6.35;4.47;;;;;;;10.13;77.98;102341.16;5049969;28;20028;-51
2021/08/25 05:48:10;;;;;;;6.82;4.22;;;;;;;10.24;77.88;102331.72;5048975;28;20034;-51
2021/08/25 05:50:35;;;;;;;7.47;4.60;;;;;;;10.25;78.50;102334.19;5049478;28;20048;-51
2021/08/25 05:53:01;;;;;;;6.55;4.57;;;;;;;10.28;78.89;102332.94;5048709;28;20029;-50
2021/08/25 05:55:26;;;;;;;7.10;4.28;;;;;;;10.44;78.43;102332.50;5049263;28;20119;-49
2021/08/25 05:57:52;;;;;;;6.20;3.80;;;;;;;10.62;78.05;102320.31;5048385;28;20039;-53
2021/08/25 06:00:19;;;;;;;5.72;3.05;;;;;;;10.78;78.18;102319.88;5049621;28;20041;-51
2021/08/25 06:02:45;;;;;;;6.20;4.00;;;;;;;10.79;78.39;102325.00;5068012;22;20715;-86
2021/08/25 06:05:12;;;;;;;5.60;3.50;;;;;;;10.69;79.16;102313.06;5059881;28;20090;-86
2021/08/25 06:07:38;;;;;;;5.35;3.40;;;;;;;10.69;79.63;102310.41;5075759;28;20032;-85
2021/08/25 06:10:07;;;;;;;5.53;3.33;;;;;;;11.07;78.82;102311.28;5058942;28;20368;-85
2021/08/25 06:12:34;;;;;;;9.35;3.90;;;;;;;11.34;78.08;102305.81;5059562;28;20035;-85
2021/08/25 06:15:00;;;;;;;6.78;3.60;;;;;;;11.60;76.95;102304.81;5073604;28;20115;-86
2021/08/25 06:17:25;;;;;;;7.55;3.97;;;;;;;11.88;76.66;102302.56;5052240;28;20953;-86
2021/08/25 06:19:53;;;;;;;6.25;4.18;;;;;;;12.17;75.98;102293.00;5059895;28;20035;-86
2021/08/25 06:22:19;;;;;;;7.65;4.10;;;;;;;12.42;75.29;102292.16;5055749;28;20128;-86
2021/08/25 06:24:45;;;;;;;6.30;3.42;;;;;;;13.01;74.00;102297.69;5060062;28;20115;-86
2021/08/25 06:27:10;;;;;;;9.48;4.22;;;;;;;13.88;71.54;102297.28;5060510;28;20487;-85
2021/08/25 06:29:43;;;;;;;6.45;3.40;;;;;;;14.05;70.51;102297.44;5061155;28;20036;-86
2021/08/25 06:32:08;;;;;;;6.03;3.63;;;;;;;13.88;70.51;102298.09;5059875;28;20032;-85
2021/08/25 06:34:37;;;;;;;5.93;3.42;;;;;;;14.00;70.08;102287.31;5060788;28;20021;-86
2021/08/25 06:37:03;;;;;;;8.02;4.10;;;;;;;13.93;70.77;102283.94;5059439;28;20494;-85
2021/08/25 06:39:29;;;;;;;5.78;3.45;;;;;;;13.69;72.22;102288.47;5058471;28;20032;-85
2021/08/25 06:41:54;;;;;;;6.20;3.70;;;;;;;13.77;72.16;102274.66;5055700;28;20031;-85
2021/08/25 06:44:20;;;;;;;6.85;3.83;;;;;;;13.92;71.47;102271.50;5057120;28;20025;-86
2021/08/25 06:46:45;;;;;;;7.82;3.95;;;;;;;14.20;70.09;102263.56;5058167;28;20028;-85
2021/08/25 06:49:11;;;;;;;6.47;3.53;;;;;;;14.56;69.52;102250.06;5056341;28;20105;-86
2021/08/25 06:51:36;;;;;;;7.53;3.30;;;;;;;14.27;68.39;102251.81;5057076;28;20082;-85
2021/08/25 06:54:02;;;;;;;7.45;3.40;;;;;;;14.49;69.58;102244.78;5057553;28;20033;-86
2021/08/25 06:56:28;;;;;;;7.43;3.70;;;;;;;14.61;69.94;102244.78;5057695;28;20038;-86
2021/08/25 06:58:53;;;;;;;11.10;3.42;;;;;;;14.62;68.96;102241.00;5059912;28;20036;-86
2021/08/25 07:01:20;;;;;;;6.07;3.28;;;;;;;14.69;68.67;102237.09;5055453;28;20509;-86
2021/08/25 07:03:45;;;;;;;7.38;3.53;;;;;;;14.86;68.48;102241.75;5052571;28;20031;-85
2021/08/25 07:06:11;;;;;;;5.88;2.85;;;;;;;15.13;67.92;102229.34;5060111;28;20758;-86
2021/08/25 07:08:36;;;;;;;7.65;3.35;;;;;;;15.14;67.85;102228.25;5054646;28;20033;-85
2021/08/25 07:11:06;;;;;;;5.53;2.75;;;;;;;14.97;67.88;102230.09;5057492;28;20020;-86
2021/08/25 07:13:31;;;;;;;5.65;3.22;;;;;;;14.98;68.14;102226.34;5056354;28;20036;-86
2021/08/25 07:15:57;;;;;;;4.75;2.65;;;;;;;15.10;67.86;102217.13;5056652;28;20448;-87
2021/08/25 07:18:22;;;;;;;7.60;3.25;;;;;;;15.34;67.35;102208.91;5057069;28;20632;-86
2021/08/25 07:20:48;;;;;;;7.55;3.15;;;;;;;15.43;65.62;102208.25;5073861;28;20024;-86
2021/08/25 07:23:14;;;;;;;8.00;3.33;;;;;;;15.65;66.31;102204.84;5071268;28;20049;-86
2021/08/25 07:25:40;;;;;;;6.18;2.90;;;;;;;16.05;64.85;102209.22;5059594;28;20163;-85
2021/08/25 07:28:06;;;;;;;4.82;2.38;;;;;;;16.33;64.26;102199.03;5055484;28;20036;-86
2021/08/25 07:30:32;;;;;;;4.43;2.58;;;;;;;16.72;63.23;102198.22;5056612;28;20021;-85
2021/08/25 07:33:39;;;;;;;6.63;2.60;;;;;;;16.88;61.27;102186.47;5071386;28;20032;-85
2021/08/25 07:36:06;;;;;;;4.75;2.40;;;;;;;16.99;58.09;102192.78;5011224;28;20143;-86
2021/08/25 07:38:31;;;;;;;6.80;2.30;;;;;;;17.51;56.04;102187.56;5021622;28;20101;-86
2021/08/25 07:40:59;;;;;;;4.85;2.50;;;;;;;18.01;54.74;102183.59;5057790;28;20020;-86
2021/08/25 07:43:28;;;;;;;5.10;2.05;;;;;;;18.20;53.34;102173.09;5057673;28;20036;-85
2021/08/25 07:45:54;;;;;;;5.47;2.30;;;;;;;18.57;51.04;102170.25;5060831;28;20032;-85
2021/08/25 07:48:19;;;;;;;4.90;2.45;;;;;;;18.40;49.97;102163.16;5060399;28;20028;-85
2021/08/25 07:50:45;;;;;;;4.38;2.25;;;;;;;18.64;50.47;102155.38;5059549;28;20021;-85
2021/08/25 07:53:10;;;;;;;4.07;2.33;;;;;;;18.66;50.27;102150.47;5057907;28;20048;-85
2021/08/25 07:55:39;;;;;;;3.85;2.10;;;;;;;18.09;50.24;102148.63;5059190;28;20037;-85
2021/08/25 07:58:05;;;;;;;6.45;2.33;;;;;;;18.12;51.39;102142.69;5064052;28;20462;-85
2021/08/25 08:00:30;;;;;;;7.22;2.50;;;;;;;18.07;51.64;102136.44;5063850;28;20063;-86
2021/08/25 08:02:58;;;;;;;4.43;2.45;;;;;;;18.08;51.62;102135.34;5065762;28;20036;-86
2021/08/25 08:05:27;;;;;;;5.40;2.30;;;;;;;18.25;51.54;102133.25;5062965;28;20493;-86
2021/08/25 08:07:56;;;;;;;6.30;2.30;;;;;;;18.22;52.04;102130.25;5062665;28;20027;-86
2021/08/25 08:10:22;;;;;;;4.88;2.17;;;;;;;18.18;52.69;102126.44;5066702;28;20119;-85
2021/08/25 08:12:47;;;;;;;7.35;3.05;;;;;;;17.90;52.33;102116.81;5066700;28;20028;-85
2021/08/25 08:15:14;;;;;;;8.15;2.83;;;;;;;18.08;52.81;102119.06;5063593;28;20359;-86
2021/08/25 08:17:44;;;;;;;6.40;2.47;;;;;;;17.84;52.13;102112.47;5063789;28;20141;-86
2021/08/25 08:20:10;;;;;;;8.15;2.70;;;;;;;18.09;51.91;102120.69;5063848;28;20032;-87
2021/08/25 08:22:35;;;;;;;6.10;2.28;;;;;;;17.59;49.21;102113.91;5065583;28;20036;-87
2021/08/25 08:25:01;;;;;;;4.28;2.00;;;;;;;17.37;48.57;102107.78;5063959;28;20024;-86
2021/08/25 08:27:27;;;;;;;3.63;2.08;;;;;;;17.64;48.39;102103.09;5061124;28;20482;-87
2021/08/25 08:29:52;;;;;;;4.13;2.30;;;;;;;17.85;47.86;102097.81;5061178;28;21015;-86
2021/08/25 08:32:20;;;;;;;5.70;2.03;;;;;;;17.74;47.37;102086.09;5062155;28;20024;-86
2021/08/25 08:34:45;;;;;;;4.75;2.38;;;;;;;17.84;47.77;102085.34;5062579;28;20044;-86
2021/08/25 08:37:11;;;;;;;5.47;2.22;;;;;;;17.80;47.80;102083.16;5064009;28;20311;-86
2021/08/25 08:39:37;;;;;;;3.53;2.05;;;;;;;18.13;47.25;102075.69;5061537;28;20040;-86
2021/08/25 08:42:04;;;;;;;4.22;2.15;;;;;;;18.17;47.68;102071.38;5058652;28;20036;-86
2021/08/25 08:44:31;;;;;;;5.10;2.17;;;;;;;18.24;47.11;102066.50;5064959;28;20039;-86
2021/08/25 08:46:56;;;;;;;5.35;1.92;;;;;;;17.99;46.79;102066.44;5077618;28;20028;-85
2021/08/25 08:49:22;;;;;;;5.07;2.50;;;;;;;17.84;47.27;102066.38;5063005;28;20532;-86
2021/08/25 08:51:50;;;;;;;3.97;2.08;;;;;;;17.89;46.20;102066.38;5062529;28;20060;-86
2021/08/25 08:54:18;;;;;;;3.60;1.95;;;;;;;17.93;46.34;102062.06;5065300;28;20020;-86
2021/08/25 08:56:44;;;;;;;3.67;1.92;;;;;;;17.61;47.18;102063.00;5063605;28;20035;-86
2021/08/25 08:59:09;;;;;;;7.53;2.25;;;;;;;17.61;47.72;102060.28;5061874;28;20024;-86
2021/08/25 09:01:35;;;;;;;3.53;1.75;;;;;;;17.68;47.20;102057.34;5062549;28;20449;-86
2021/08/25 09:04:01;;;;;;;3.85;2.00;;;;;;;17.37;48.22;102053.63;5059217;28;20056;-86
2021/08/25 09:06:44;;;;;;;3.05;2.03;;;;;;;17.31;47.37;102049.25;5060274;28;20399;-86
2021/08/25 09:09:10;;;;;;;5.68;2.28;;;;;;;17.56;47.81;102043.97;5064331;28;20700;-86
2021/08/25 09:11:48;;;;;;;3.75;1.90;;;;;;;17.36;48.35;102043.84;5064708;28;20119;-85
2021/08/25 09:14:13;;;;;;;6.43;2.30;;;;;;;17.64;48.14;102026.41;5063702;28;20107;-85
2021/08/25 09:16:39;;;;;;;4.22;2.00;;;;;;;17.67;48.07;102026.69;5063650;28;20147;-86
2021/08/25 09:19:08;;;;;;;5.15;1.98;;;;;;;17.40;48.54;102028.69;5061151;28;20035;-86
2021/08/25 09:21:54;;;;;;;4.32;2.28;;;;;;;17.27;48.45;102035.41;5059951;28;20447;-86
2021/08/25 09:24:37;;;;;;;5.95;1.92;;;;;;;17.20;48.87;102021.28;5063328;28;20056;-86
2021/08/25 09:27:16;;;;;;;8.63;2.33;;;;;;;17.25;49.10;102032.16;5061534;28;20078;-86
2021/08/25 09:29:44;;;;;;;4.95;2.45;;;;;;;17.15;49.90;102023.97;5059850;28;20897;-87
2021/08/25 09:32:21;;;;;;;3.03;1.63;;;;;;;17.19;50.10;102006.09;5063307;28;20501;-85
2021/08/25 09:34:56;;;;;;;3.83;2.08;;;;;;;17.21;50.16;102012.88;5065678;28;20383;-86
2021/08/25 09:37:23;;;;;;;4.95;1.98;;;;;;;17.31;49.95;102008.63;5064528;28;20032;-87
2021/08/25 09:39:50;;;;;;;4.70;2.00;;;;;;;17.64;49.53;102008.25;5068631;28;20028;-88
2021/08/25 09:42:18;;;;;;;4.65;2.05;;;;;;;17.62;49.55;101999.56;5078722;28;20035;-87
2021/08/25 09:44:46;;;;;;;3.67;1.98;;;;;;;17.70;49.79;101999.09;5066076;28;20028;-86
2021/08/25 09:47:12;;;;;;;5.10;2.08;;;;;;;18.00;48.97;101994.84;5063036;28;20068;-87
2021/08/25 09:49:38;;;;;;;4.18;2.35;;;;;;;18.08;48.77;101994.31;5061737;28;20047;-88
2021/08/25 09:52:05;;;;;;;4.68;2.50;;;;;;;18.06;48.79;101991.88;5065077;28;20051;-87
2021/08/25 09:54:31;;;;;;;4.55;2.30;;;;;;;18.08;49.00;101983.47;5062452;28;20660;-86
2021/08/25 09:56:57;;;;;;;4.07;2.10;;;;;;;17.78;49.80;101979.59;5065822;28;20032;-87
2021/08/25 09:59:23;;;;;;;4.03;2.20;;;;;;;17.90;49.93;101979.34;5065434;28;20032;-88
2021/08/25 10:01:51;;;;;;;6.00;2.53;;;;;;;17.68;50.83;101974.13;5062879;28;20070;-87
2021/08/25 10:04:17;;;;;;;5.55;2.30;;;;;;;17.64;50.86;101970.31;5081042;28;20028;-87
2021/08/25 10:06:47;;;;;;;6.35;2.20;;;;;;;17.80;50.80;101960.38;5063008;28;20035;-87
2021/08/25 10:09:14;;;;;;;11.38;2.63;;;;;;;17.78;50.87;101960.63;5062041;28;20093;-87
2021/08/25 10:11:42;;;;;;;11.80;2.28;;;;;;;17.83;50.71;101961.72;5062804;28;20028;-87
2021/08/25 10:14:16;;;;;;;6.07;2.25;;;;;;;17.55;51.29;101950.19;5060938;28;20024;-87
2021/08/25 10:16:49;;;;;;;11.80;2.40;;;;;;;17.69;51.47;101947.84;5064104;28;20481;-87
2021/08/25 10:19:36;;;;;;;4.93;2.38;;;;;;;17.63;51.85;101938.88;5061722;28;20032;-87
2021/08/25 10:22:14;;;;;;;7.47;2.10;;;;;;;17.77;51.35;101934.59;5063741;28;20044;-87
2021/08/25 10:24:49;;;;;;;8.88;2.53;;;;;;;17.54;52.20;101924.19;5064159;28;20032;-86
2021/08/25 10:27:14;;;;;;;;;;;;;;;17.49;52.67;101921.47;5066154;28;20028;-88
2021/08/25 10:30:02;;;;;;;4.55;2.35;;;;;;;17.74;51.98;101910.72;5063842;28;19991;-88
2021/08/25 10:32:29;;;;;;;7.10;2.30;;;;;;;17.97;51.78;101908.63;5066663;28;20025;-87
2021/08/25 10:35:13;;;;;;;3.83;2.13;;;;;;;18.19;51.40;101903.75;5062456;28;20056;-86
2021/08/25 10:37:40;;;;;;;5.30;2.40;;;;;;;18.23;51.09;101891.25;5061387;28;20843;-88
2021/08/25 10:40:07;;;;;;;5.10;2.33;;;;;;;18.23;51.07;101887.72;5060844;28;20031;-85
2021/08/25 10:42:48;;;;;;;8.70;2.60;;;;;;;18.35;50.84;101872.00;5060723;28;20282;-86
2021/08/25 10:45:16;;;;;;;5.93;2.72;;;;;;;18.67;50.08;101864.41;5060867;28;20036;-86
2021/08/25 10:47:59;;;;;;;4.95;2.60;;;;;;;18.40;51.37;101855.72;5058173;28;20510;-86
2021/08/25 10:50:53;;;;;;;4.82;2.20;;;;;;;18.51;51.00;101856.53;5059137;28;20989;-86
2021/08/25 10:53:31;;;;;;;6.00;2.57;;;;;;;18.61;50.62;101846.44;5044205;28;20227;-86
2021/08/25 10:56:10;;;;;;;5.40;2.20;;;;;;;18.60;51.25;101839.38;5058598;28;20024;-86
2021/08/25 10:58:58;;;;;;;6.50;2.75;;;;;;;18.66;50.98;101837.50;5057794;28;20032;-86
2021/08/25 11:01:23;;;;;;;5.72;2.78;;;;;;;19.10;50.00;101825.94;5055805;28;20029;-87
2021/08/25 11:03:50;;;;;;;4.82;2.08;;;;;;;19.39;49.39;101818.72;5060209;28;20098;-87
2021/08/25 11:06:41;;;;;;;9.20;2.10;;;;;;;19.57;49.09;101801.78;5059805;28;20491;-86
2021/08/25 11:09:23;;;;;;;8.52;2.50;;;;;;;19.67;47.92;101792.72;5058093;28;20039;-86
2021/08/25 11:12:14;;;;;;;8.43;2.60;;;;;;;20.05;48.57;101769.28;5057072;28;20039;-86
2021/08/25 11:14:46;;;;;;;8.30;2.45;;;;;;;19.74;47.91;101774.19;5060142;28;20028;-85
2021/08/25 11:17:23;;;;;;;5.70;2.25;;;;;;;19.74;48.49;101763.31;5057956;28;20491;-86
2021/08/25 11:19:53;;;;;;;10.48;3.53;;;;;;;19.75;48.30;101759.50;5058509;28;20882;-86
2021/08/25 11:22:24;;;;;;;6.70;3.30;;;;;;;19.79;48.08;101754.31;5060481;28;20032;-85
2021/08/25 11:24:59;;;;;;;4.57;2.15;;;;;;;20.15;47.61;101739.28;5058821;28;20360;-86
2021/08/25 11:27:37;;;;;;;4.45;2.35;;;;;;;20.59;47.16;101732.78;5054753;28;20555;-86
2021/08/25 11:30:17;;;;;;;4.60;2.80;;;;;;;20.84;46.39;101722.69;5051466;28;20124;-87
2021/08/25 11:32:52;;;;;;;5.95;2.30;;;;;;;20.71;45.76;101703.25;5056350;28;20020;-86